Time;durP1;ratioP1;P1;durP2;ratioP2;P2;SDS_P1;SDS_P2;PMS_P1;PMS_P2;Temp;Humidity;BMP_temperature;BMP_pressure;BME280_temperature;BME280_humidity;BME280_pressure;Samples;Min_cycle;Max_cycle;Signal;HPM_P1;HPM_P2
2023/07/04 00:00:13;;;;;;;2.80;2.50;;;;;;;;;;5056051;28;20543;-77
2023/07/04 00:02:41;;;;;;;2.90;2.47;;;;;;;;;;5054922;28;20484;-75
2023/07/04 00:05:10;;;;;;;3.13;2.60;;;;;;;;;;5054987;28;20477;-77
2023/07/04 00:07:40;;;;;;;2.73;2.40;;;;;;;;;;5055829;28;20461;-77
2023/07/04 00:10:11;;;;;;;5.77;2.83;;;;;;;;;;5055974;28;20492;-77
2023/07/04 00:12:40;;;;;;;2.57;2.37;;;;;;;;;;5056319;28;20465;-77
2023/07/04 00:15:10;;;;;;;2.57;2.37;;;;;;;;;;5056658;28;20464;-76
2023/07/04 00:17:38;;;;;;;2.53;2.23;;;;;;;;;;5055533;28;20559;-77
2023/07/04 00:20:07;;;;;;;2.67;2.47;;;;;;;;;;5056185;28;20445;-76
2023/07/04 00:22:34;;;;;;;2.57;2.37;;;;;;;;;;5053751;28;20515;-77
2023/07/04 00:25:03;;;;;;;2.63;2.43;;;;;;;;;;5054733;28;20453;-77
2023/07/04 00:27:33;;;;;;;3.80;2.50;;;;;;;;;;5056329;28;20460;-76
2023/07/04 00:30:04;;;;;;;3.57;2.47;;;;;;;;;;5054895;28;20479;-75
2023/07/04 00:32:33;;;;;;;2.60;2.40;;;;;;;;;;5058563;28;20440;-73
2023/07/04 00:35:02;;;;;;;2.40;2.20;;;;;;;;;;5057694;28;20443;-75
2023/07/04 00:37:31;;;;;;;2.60;2.43;;;;;;;;;;5058153;28;20462;-74
2023/07/04 00:40:05;;;;;;;2.70;2.50;;;;;;;;;;5058832;28;20497;-76
2023/07/04 00:42:38;;;;;;;3.47;2.83;;;;;;;;;;5059009;28;20463;-73
2023/07/04 00:45:19;;;;;;;2.63;2.43;;;;;;;;;;5059555;28;20448;-76
2023/07/04 00:47:53;;;;;;;2.53;2.43;;;;;;;;;;5059280;28;20463;-76
2023/07/04 00:50:23;;;;;;;2.80;2.60;;;;;;;;;;5058440;28;20447;-75
2023/07/04 00:52:53;;;;;;;3.00;2.80;;;;;;;;;;5057969;28;20844;-74
2023/07/04 00:55:21;;;;;;;3.43;3.13;;;;;;;;;;5057998;28;20510;-76
2023/07/04 00:57:51;;;;;;;6.00;3.10;;;;;;;;;;5059283;28;20468;-76
2023/07/04 01:00:23;;;;;;;2.93;2.70;;;;;;;;;;5059214;28;20480;-76
2023/07/04 01:02:52;;;;;;;3.37;2.43;;;;;;;;;;5059128;28;20513;-76
2023/07/04 01:05:23;;;;;;;3.20;2.90;;;;;;;;;;5058135;28;20501;-76
2023/07/04 01:07:53;;;;;;;3.00;2.70;;;;;;;;;;5058464;28;20420;-77
2023/07/04 01:10:25;;;;;;;3.60;2.40;;;;;;;;;;5057962;28;20433;-77
2023/07/04 01:12:54;;;;;;;3.47;3.17;;;;;;;;;;5058285;28;20562;-76
2023/07/04 01:15:23;;;;;;;3.03;2.73;;;;;;;;;;5058860;28;20473;-75
2023/07/04 01:17:51;;;;;;;3.10;2.90;;;;;;;;;;5060120;28;20457;-75
2023/07/04 01:20:19;;;;;;;3.47;2.80;;;;;;;;;;5061238;28;20432;-76
2023/07/04 01:22:52;;;;;;;3.10;2.90;;;;;;;;;;5080384;28;20585;-76
2023/07/04 01:25:23;;;;;;;6.27;3.03;;;;;;;;;;5081043;28;20521;-76
2023/07/04 01:27:59;;;;;;;3.10;2.57;;;;;;;;;;5081793;28;20455;-76
2023/07/04 01:30:28;;;;;;;3.30;3.00;;;;;;;;;;5081008;28;20442;-77
2023/07/04 01:32:56;;;;;;;3.20;2.90;;;;;;;;;;5081645;28;20473;-77
2023/07/04 01:35:25;;;;;;;3.70;2.80;;;;;;;;;;5083357;28;20438;-78
2023/07/04 01:37:53;;;;;;;3.33;2.83;;;;;;;;;;5081685;28;20473;-76
2023/07/04 01:40:21;;;;;;;3.33;3.00;;;;;;;;;;5079019;28;20484;-77
2023/07/04 01:42:50;;;;;;;3.63;2.87;;;;;;;;;;5076500;28;20481;-76
2023/07/04 01:45:19;;;;;;;3.03;2.77;;;;;;;;;;5073070;28;20430;-76
2023/07/04 01:47:47;;;;;;;5.77;3.00;;;;;;;;;;5073885;28;20436;-77
2023/07/04 01:50:15;;;;;;;6.43;3.10;;;;;;;;;;5075128;28;20456;-77
2023/07/04 01:52:43;;;;;;;2.93;2.53;;;;;;;;;;5075817;28;20480;-77
2023/07/04 01:55:12;;;;;;;4.40;3.00;;;;;;;;;;5073171;28;20519;-77
2023/07/04 01:57:40;;;;;;;3.60;3.30;;;;;;;;;;5074113;28;20477;-76
2023/07/04 02:00:09;;;;;;;3.70;2.63;;;;;;;;;;5074330;28;20480;-75
2023/07/04 02:02:39;;;;;;;3.53;3.20;;;;;;;;;;5074105;28;20442;-76
2023/07/04 02:05:07;;;;;;;2.90;2.70;;;;;;;;;;5073375;28;20458;-75
2023/07/04 02:07:35;;;;;;;3.20;2.90;;;;;;;;;;5074658;28;20444;-76
2023/07/04 02:10:08;;;;;;;3.67;2.77;;;;;;;;;;5076370;28;20455;-76
2023/07/04 02:12:39;;;;;;;2.50;2.30;;;;;;;;;;5076395;28;20434;-76
2023/07/04 02:15:11;;;;;;;3.17;2.90;;;;;;;;;;5078325;28;20434;-76
2023/07/04 02:17:42;;;;;;;5.20;3.40;;;;;;;;;;5082265;28;20467;-75
2023/07/04 02:20:11;;;;;;;3.90;3.27;;;;;;;;;;5083129;28;20454;-77
2023/07/04 02:22:45;;;;;;;3.43;2.90;;;;;;;;;;5082807;28;20431;-76
2023/07/04 02:25:14;;;;;;;3.40;2.80;;;;;;;;;;5083557;28;20435;-76
2023/07/04 02:27:42;;;;;;;3.00;2.70;;;;;;;;;;5085487;28;20454;-77
2023/07/04 02:30:18;;;;;;;2.97;2.77;;;;;;;;;;5086268;28;20487;-76
2023/07/04 02:32:48;;;;;;;3.30;2.83;;;;;;;;;;5086145;28;20730;-75
2023/07/04 02:35:16;;;;;;;3.20;2.43;;;;;;;;;;5084587;28;20660;-76
2023/07/04 02:37:44;;;;;;;3.10;2.60;;;;;;;;;;5079952;28;20539;-76
2023/07/04 02:40:12;;;;;;;3.33;2.73;;;;;;;;;;5078138;28;20460;-75
2023/07/04 02:42:39;;;;;;;3.00;2.70;;;;;;;;;;5077930;28;20480;-76
2023/07/04 02:45:08;;;;;;;3.93;3.07;;;;;;;;;;5077951;28;20443;-77
2023/07/04 02:47:39;;;;;;;4.30;3.90;;;;;;;;;;5080442;28;20453;-77
2023/07/04 02:50:12;;;;;;;2.87;2.23;;;;;;;;;;5080912;28;20466;-75
2023/07/04 02:52:40;;;;;;;2.93;2.60;;;;;;;;;;5081635;28;20522;-76
2023/07/04 02:55:11;;;;;;;3.27;2.53;;;;;;;;;;5080238;28;20472;-76
2023/07/04 02:57:39;;;;;;;3.03;2.43;;;;;;;;;;5080487;28;20484;-76
2023/07/04 03:00:08;;;;;;;3.80;2.73;;;;;;;;;;5080185;28;20436;-77
2023/07/04 03:02:37;;;;;;;5.00;3.00;;;;;;;;;;5080076;28;20469;-76
2023/07/04 03:05:06;;;;;;;3.40;2.70;;;;;;;;;;5079582;28;20474;-76
2023/07/04 03:07:36;;;;;;;4.30;2.17;;;;;;;;;;5081662;28;20920;-75
2023/07/04 03:10:15;;;;;;;3.13;2.80;;;;;;;;;;5081637;28;20436;-77
2023/07/04 03:12:57;;;;;;;;;;;;;;;;;;;;;
2023/07/04 03:15:58;;;;;;;2.97;2.77;;;;;;;;;;5081503;28;20455;-78
2023/07/04 03:18:43;;;;;;;3.50;2.17;;;;;;;;;;5073807;28;20523;-75
2023/07/04 03:27:01;;;;;;;2.87;2.67;;;;;;;;;;5066389;28;20442;-75
2023/07/04 03:29:34;;;;;;;2.37;2.20;;;;;;;;;;5081316;28;20506;-75
2023/07/04 03:32:04;;;;;;;3.33;3.03;;;;;;;;;;5083052;28;20453;-75
2023/07/04 03:40:16;;;;;;;2.20;2.10;;;;;;;;;;5058170;28;20426;-74
2023/07/04 03:42:45;;;;;;;2.60;2.40;;;;;;;;;;5056706;28;20469;-75
2023/07/04 03:45:13;;;;;;;2.80;2.60;;;;;;;;;;5079750;28;20468;-76
2023/07/04 03:47:44;;;;;;;3.20;2.67;;;;;;;;;;5081178;28;20952;-75
2023/07/04 03:50:14;;;;;;;2.70;2.50;;;;;;;;;;5080782;28;20465;-75
2023/07/04 03:52:44;;;;;;;2.60;2.40;;;;;;;;;;5080395;28;20466;-75
2023/07/04 03:55:15;;;;;;;2.70;2.50;;;;;;;;;;5080947;28;20442;-74
2023/07/04 03:57:53;;;;;;;2.70;2.50;;;;;;;;;;5080309;28;20879;-76
2023/07/04 04:00:21;;;;;;;2.60;2.40;;;;;;;;;;5079692;28;20457;-74
2023/07/04 04:02:51;;;;;;;3.40;2.33;;;;;;;;;;5078905;28;21025;-75
2023/07/04 04:05:21;;;;;;;2.37;2.17;;;;;;;;;;5078232;28;20460;-73
2023/07/04 04:07:57;;;;;;;2.80;2.50;;;;;;;;;;5079259;28;20450;-75
2023/07/04 04:10:33;;;;;;;3.10;2.87;;;;;;;;;;5080932;28;20453;-75
2023/07/04 04:13:14;;;;;;;3.93;2.70;;;;;;;;;;5085334;28;20581;-75
2023/07/04 04:15:43;;;;;;;2.40;2.30;;;;;;;;;;5086072;28;20427;-77
2023/07/04 04:30:42;;;;;;;;;;;;;;;;;;;;;
2023/07/04 04:36:20;;;;;;;2.37;2.17;;;;;;;;;;4940190;29;20464;-75
2023/07/04 04:54:26;;;;;;;2.50;2.30;;;;;;;;;;4966220;28;20467;-77
2023/07/04 04:56:58;;;;;;;2.73;2.37;;;;;;;;;;5071409;28;20469;-76
2023/07/04 04:59:33;;;;;;;2.43;2.27;;;;;;;;;;5077070;28;20956;-75
2023/07/04 05:02:11;;;;;;;4.53;2.40;;;;;;;;;;5077001;28;20515;-77
2023/07/04 05:05:02;;;;;;;3.63;2.87;;;;;;;;;;5076356;28;20956;-76
2023/07/04 05:07:33;;;;;;;3.20;2.60;;;;;;;;;;5075986;28;20982;-76
2023/07/04 05:13:01;;;;;;;2.87;2.50;;;;;;;;;;5083697;28;20512;-77
2023/07/04 05:22:08;;;;;;;2.43;2.23;;;;;;;;;;4906920;29;20424;-76
2023/07/04 05:50:15;;;;;;;2.73;2.53;;;;;;;;;;4886834;29;20495;-78
2023/07/04 06:05:24;;;;;;;3.33;3.03;;;;;;;;;;5014789;28;20520;-76
2023/07/04 06:08:02;;;;;;;5.57;3.27;;;;;;;;;;5059700;28;20471;-78
2023/07/04 06:10:36;;;;;;;3.60;2.70;;;;;;;;;;5085065;28;20465;-76
2023/07/04 06:13:22;;;;;;;3.53;2.57;;;;;;;;;;5083118;28;20524;-76
2023/07/04 06:15:56;;;;;;;4.37;2.80;;;;;;;;;;5082656;28;20725;-78
2023/07/04 06:18:44;;;;;;;4.30;3.23;;;;;;;;;;5078866;28;20483;-76
2023/07/04 06:21:24;;;;;;;4.53;3.00;;;;;;;;;;5080849;28;20446;-75
2023/07/04 06:26:58;;;;;;;4.27;2.90;;;;;;;;;;5084630;28;20439;-77
2023/07/04 06:32:47;;;;;;;3.43;2.73;;;;;;;;;;4994127;28;20449;-75
2023/07/04 06:41:07;;;;;;;3.60;2.90;;;;;;;;;;5081546;28;20467;-77
2023/07/04 06:46:21;;;;;;;4.80;3.03;;;;;;;;;;5076876;28;20448;-76
2023/07/04 06:48:59;;;;;;;6.73;3.17;;;;;;;;;;5065991;28;20448;-77
2023/07/04 06:54:23;;;;;;;4.70;3.47;;;;;;;;;;5088008;28;20455;-75
2023/07/04 06:57:09;;;;;;;9.50;3.87;;;;;;;;;;5089593;28;20438;-76
2023/07/04 07:02:37;;;;;;;5.83;3.90;;;;;;;;;;5089249;28;20440;-77
2023/07/04 07:05:22;;;;;;;3.90;3.30;;;;;;;;;;5093473;28;20463;-75
2023/07/04 07:08:08;;;;;;;7.23;3.53;;;;;;;;;;5093277;28;20474;-78
2023/07/04 07:10:56;;;;;;;6.90;3.50;;;;;;;;;;5092401;28;20498;-77
2023/07/04 07:19:18;;;;;;;3.07;2.80;;;;;;;;;;5031798;28;20487;-76
2023/07/04 07:21:49;;;;;;;4.70;3.70;;;;;;;;;;5078613;28;20495;-75
2023/07/04 07:24:19;;;;;;;8.00;3.77;;;;;;;;;;5094401;28;20457;-77
2023/07/04 07:35:51;;;;;;;6.77;4.30;;;;;;;;;;5019203;28;20440;-76
2023/07/04 07:38:19;;;;;;;6.30;4.33;;;;;;;;;;5092898;28;20504;-76
2023/07/04 07:40:53;;;;;;;9.07;6.20;;;;;;;;;;5089660;28;20452;-78
2023/07/04 07:43:27;;;;;;;5.43;3.70;;;;;;;;;;5091128;28;20532;-77
2023/07/04 07:45:57;;;;;;;5.47;3.70;;;;;;;;;;5091721;28;20613;-77
2023/07/04 07:48:26;;;;;;;7.03;4.10;;;;;;;;;;5090681;28;20448;-76
2023/07/04 07:50:55;;;;;;;5.57;4.10;;;;;;;;;;5091501;28;20453;-77
2023/07/04 07:53:31;;;;;;;7.47;3.87;;;;;;;;;;5093150;28;20475;-77
2023/07/04 07:56:02;;;;;;;4.70;3.60;;;;;;;;;;5093975;28;20521;-77
2023/07/04 07:58:50;;;;;;;5.57;4.20;;;;;;;;;;5091478;28;20518;-76
2023/07/04 08:01:38;;;;;;;6.03;4.10;;;;;;;;;;5090351;28;20433;-76
2023/07/04 08:10:42;;;;;;;6.20;4.17;;;;;;;;;;4981137;28;20486;-77
2023/07/04 08:19:03;;;;;;;6.90;4.70;;;;;;;;;;4993381;28;20476;-76
2023/07/04 08:21:32;;;;;;;7.70;4.80;;;;;;;;;;5016071;28;20521;-75
2023/07/04 08:24:00;;;;;;;4.23;3.83;;;;;;;;;;5063106;28;20571;-76
2023/07/04 08:26:30;;;;;;;6.77;4.83;;;;;;;;;;5063555;28;20517;-76
2023/07/04 08:28:59;;;;;;;5.50;4.30;;;;;;;;;;5064154;28;20453;-77
2023/07/04 08:31:29;;;;;;;5.80;4.03;;;;;;;;;;5061658;28;20472;-76
2023/07/04 08:34:11;;;;;;;5.23;4.17;;;;;;;;;;5059321;28;20565;-76
2023/07/04 08:36:47;;;;;;;5.40;3.77;;;;;;;;;;5061187;28;20448;-77
2023/07/04 08:39:18;;;;;;;8.17;4.33;;;;;;;;;;5058987;28;20515;-75
2023/07/04 08:41:52;;;;;;;7.50;4.80;;;;;;;;;;5059578;28;20436;-76
2023/07/04 08:44:22;;;;;;;8.40;4.50;;;;;;;;;;5058104;28;20469;-76
2023/07/04 08:46:55;;;;;;;6.70;4.60;;;;;;;;;;5059163;28;20454;-77
2023/07/04 08:49:26;;;;;;;6.03;4.63;;;;;;;;;;5057771;28;20884;-76
2023/07/04 08:52:08;;;;;;;8.47;4.23;;;;;;;;;;5057646;28;20465;-76
2023/07/04 09:06:32;;;;;;;6.63;4.33;;;;;;;;;;4941921;28;20761;-75
2023/07/04 09:09:26;;;;;;;7.20;4.90;;;;;;;;;;4996253;28;20459;-76
2023/07/04 09:12:07;;;;;;;7.80;4.40;;;;;;;;;;4995912;28;20441;-75
2023/07/04 09:14:59;;;;;;;5.43;4.93;;;;;;;;;;5028002;28;20462;-74
2023/07/04 09:17:29;;;;;;;5.83;5.10;;;;;;;;;;5055718;28;20549;-77
2023/07/04 09:20:11;;;;;;;8.23;5.00;;;;;;;;;;5054338;28;21095;-76
2023/07/04 09:22:55;;;;;;;5.97;5.30;;;;;;;;;;5056519;28;20471;-76
2023/07/04 09:31:54;;;;;;;6.87;6.00;;;;;;;;;;5058114;28;20399;-76
2023/07/04 09:34:34;;;;;;;5.90;5.20;;;;;;;;;;5056706;28;20475;-77
2023/07/04 09:37:10;;;;;;;6.40;5.63;;;;;;;;;;5057011;28;20458;-77
2023/07/04 09:39:54;;;;;;;6.70;6.00;;;;;;;;;;5055756;28;20493;-77
2023/07/04 09:42:23;;;;;;;6.10;5.10;;;;;;;;;;5056458;28;20537;-76
2023/07/04 09:44:55;;;;;;;7.33;5.80;;;;;;;;;;5055994;28;20461;-76
2023/07/04 09:47:38;;;;;;;7.33;6.67;;;;;;;;;;5068624;28;20463;-76
2023/07/04 09:50:51;;;;;;;6.40;5.80;;;;;;;;;;5077408;28;20455;-76
2023/07/04 09:53:31;;;;;;;7.23;5.23;;;;;;;;;;5078146;28;20464;-75
2023/07/04 09:56:02;;;;;;;6.00;5.40;;;;;;;;;;5082275;28;20460;-77
2023/07/04 09:58:46;;;;;;;5.40;4.90;;;;;;;;;;5079761;28;20464;-75
2023/07/04 10:04:29;;;;;;;6.80;4.67;;;;;;;;;;5084762;28;20458;-76
2023/07/04 10:06:59;;;;;;;7.70;5.00;;;;;;;;;;5082280;28;20483;-77
2023/07/04 10:09:30;;;;;;;5.03;4.53;;;;;;;;;;5084116;28;20490;-76
2023/07/04 10:12:13;;;;;;;8.50;5.33;;;;;;;;;;5082557;28;20465;-74
2023/07/04 10:15:03;;;;;;;8.53;5.60;;;;;;;;;;5080687;28;20476;-76
2023/07/04 10:17:54;;;;;;;6.77;5.80;;;;;;;;;;5072152;28;20448;-76
2023/07/04 10:20:40;;;;;;;7.80;6.17;;;;;;;;;;5081704;28;20447;-75
2023/07/04 10:23:21;;;;;;;7.20;5.70;;;;;;;;;;5078490;28;20514;-77
2023/07/04 10:25:57;;;;;;;6.83;6.10;;;;;;;;;;5079608;28;20466;-78
2023/07/04 10:34:26;;;;;;;8.33;5.77;;;;;;;;;;5081114;28;20528;-78
2023/07/04 10:37:02;;;;;;;7.40;5.97;;;;;;;;;;5073946;28;20460;-77
2023/07/04 10:39:43;;;;;;;7.53;6.43;;;;;;;;;;5081191;28;20491;-76
2023/07/04 10:42:21;;;;;;;7.00;5.77;;;;;;;;;;5081366;28;20448;-78
2023/07/04 10:44:54;;;;;;;7.10;5.40;;;;;;;;;;5082095;28;20536;-76
2023/07/04 10:47:26;;;;;;;7.73;5.37;;;;;;;;;;5081905;28;20490;-76
2023/07/04 10:49:55;;;;;;;8.93;5.43;;;;;;;;;;5079461;28;20527;-77
2023/07/04 10:52:28;;;;;;;10.27;6.07;;;;;;;;;;5081128;28;20448;-78
2023/07/04 10:54:56;;;;;;;6.83;6.23;;;;;;;;;;5080727;28;20460;-77
2023/07/04 10:57:26;;;;;;;6.97;6.37;;;;;;;;;;5081256;28;20577;-76
2023/07/04 10:59:57;;;;;;;6.63;5.93;;;;;;;;;;5080132;28;20485;-77
2023/07/04 11:02:32;;;;;;;6.43;5.93;;;;;;;;;;5081288;28;20459;-80
2023/07/04 11:05:13;;;;;;;7.20;6.00;;;;;;;;;;5084017;28;20433;-76
2023/07/04 11:07:45;;;;;;;6.43;5.70;;;;;;;;;;5085722;28;20456;-76
2023/07/04 11:18:41;;;;;;;6.23;5.40;;;;;;;;;;5079199;28;20476;-78
2023/07/04 11:24:34;;;;;;;;;;;;;;;;;;;;;
2023/07/04 11:27:33;;;;;;;6.00;5.40;;;;;;;;;;5082147;28;20424;-78
2023/07/04 11:30:45;;;;;;;7.63;5.97;;;;;;;;;;5082240;28;21006;-77
2023/07/04 11:33:29;;;;;;;6.60;5.43;;;;;;;;;;5080646;28;20623;-77
2023/07/04 11:36:12;;;;;;;6.97;5.13;;;;;;;;;;5081750;28;20511;-78
2023/07/04 11:38:46;;;;;;;9.33;5.70;;;;;;;;;;5080536;28;20469;-78
2023/07/04 11:41:20;;;;;;;6.00;5.40;;;;;;;;;;5081082;28;20475;-78
2023/07/04 11:43:49;;;;;;;5.80;5.03;;;;;;;;;;5080020;28;20498;-79
2023/07/04 11:46:31;;;;;;;6.37;5.77;;;;;;;;;;5083380;28;20449;-79
2023/07/04 11:55:03;;;;;;;6.23;5.63;;;;;;;;;;5075022;28;20862;-78
2023/07/04 11:57:51;;;;;;;6.80;5.50;;;;;;;;;;5080319;28;20463;-75
2023/07/04 12:03:44;;;;;;;5.43;4.93;;;;;;;;;;5072539;28;20469;-78
2023/07/04 12:06:40;;;;;;;7.00;5.67;;;;;;;;;;5081203;28;20862;-77
2023/07/04 12:09:17;;;;;;;6.70;5.60;;;;;;;;;;5082954;28;20449;-77
2023/07/04 12:11:49;;;;;;;7.33;5.37;;;;;;;;;;5082547;28;20456;-77
2023/07/04 12:20:22;;;;;;;6.83;6.23;;;;;;;;;;5089952;28;20485;-76
2023/07/04 12:29:30;;;;;;;6.33;5.73;;;;;;;;;;5016205;28;20671;-75
2023/07/04 12:36:06;;;;;;;;;;;;;;;;;;;;;
2023/07/04 12:41:49;;;;;;;7.20;6.23;;;;;;;;;;4939126;28;20481;-77
2023/07/04 12:44:20;;;;;;;7.00;5.40;;;;;;;;;;4989183;28;20582;-77
2023/07/04 12:46:54;;;;;;;9.60;6.10;;;;;;;;;;4989833;28;20453;-78
2023/07/04 12:49:25;;;;;;;6.63;6.03;;;;;;;;;;4987175;28;20473;-77
2023/07/04 12:52:03;;;;;;;6.40;5.80;;;;;;;;;;5021440;28;20472;-77
2023/07/04 12:54:38;;;;;;;6.63;5.33;;;;;;;;;;5058127;28;20473;-77
2023/07/04 12:57:06;;;;;;;6.97;6.30;;;;;;;;;;5056758;28;20441;-76
2023/07/04 12:59:41;;;;;;;6.57;5.93;;;;;;;;;;5057608;28;20560;-77
2023/07/04 13:02:13;;;;;;;6.30;5.70;;;;;;;;;;5054332;28;20453;-78
2023/07/04 13:04:41;;;;;;;5.53;5.03;;;;;;;;;;5052703;28;20466;-77
2023/07/04 13:07:11;;;;;;;6.10;5.23;;;;;;;;;;5052723;28;20553;-76
2023/07/04 13:09:44;;;;;;;5.80;5.20;;;;;;;;;;5056291;28;20558;-77
2023/07/04 13:12:28;;;;;;;5.90;5.40;;;;;;;;;;5056220;28;20450;-77
2023/07/04 13:15:26;;;;;;;5.80;5.30;;;;;;;;;;5054492;28;20461;-77
2023/07/04 13:18:12;;;;;;;6.57;5.07;;;;;;;;;;5054358;28;20462;-78
2023/07/04 13:21:01;;;;;;;5.80;4.90;;;;;;;;;;5056780;28;20477;-77
2023/07/04 13:23:33;;;;;;;5.73;5.23;;;;;;;;;;5053701;28;20470;-76
2023/07/04 13:26:03;;;;;;;5.80;5.20;;;;;;;;;;5054358;28;20460;-78
2023/07/04 13:28:33;;;;;;;5.83;4.50;;;;;;;;;;5055165;28;20442;-78
2023/07/04 13:31:19;;;;;;;5.43;4.90;;;;;;;;;;5057451;28;20454;-78
2023/07/04 13:33:47;;;;;;;5.97;4.80;;;;;;;;;;5061321;28;20648;-78
2023/07/04 13:36:17;;;;;;;7.40;5.33;;;;;;;;;;5059641;28;20517;-78
2023/07/04 13:38:47;;;;;;;5.57;5.07;;;;;;;;;;5059484;28;20780;-79
2023/07/04 13:41:18;;;;;;;6.17;5.67;;;;;;;;;;5057870;28;20545;-77
2023/07/04 13:43:46;;;;;;;5.30;4.80;;;;;;;;;;5057186;28;20477;-77
2023/07/04 13:46:14;;;;;;;6.70;4.70;;;;;;;;;;5056293;28;20464;-77
2023/07/04 13:48:42;;;;;;;5.23;4.60;;;;;;;;;;5055901;28;20509;-78
2023/07/04 13:51:13;;;;;;;5.27;4.87;;;;;;;;;;5057144;28;20462;-77
2023/07/04 13:53:41;;;;;;;5.23;4.40;;;;;;;;;;5057432;28;20474;-80
2023/07/04 13:56:11;;;;;;;5.97;5.00;;;;;;;;;;5058287;28;20541;-80
2023/07/04 13:58:41;;;;;;;5.70;5.10;;;;;;;;;;5059615;28;20469;-77
2023/07/04 14:01:21;;;;;;;5.60;4.57;;;;;;;;;;5057094;28;20464;-75
2023/07/04 14:03:50;;;;;;;4.93;4.53;;;;;;;;;;5057335;28;20496;-78
2023/07/04 14:06:24;;;;;;;5.10;4.60;;;;;;;;;;5056865;28;20434;-79
2023/07/04 14:08:55;;;;;;;4.60;4.20;;;;;;;;;;5057568;28;20454;-78
2023/07/04 14:11:24;;;;;;;5.97;4.50;;;;;;;;;;5057160;28;20513;-76
2023/07/04 14:13:54;;;;;;;6.50;4.77;;;;;;;;;;5057411;28;20542;-77
2023/07/04 14:16:24;;;;;;;5.40;4.90;;;;;;;;;;5058111;28;20545;-77
2023/07/04 14:18:52;;;;;;;4.67;4.27;;;;;;;;;;5057627;28;20442;-79
2023/07/04 14:21:23;;;;;;;5.83;5.10;;;;;;;;;;5067284;28;20451;-78
2023/07/04 14:23:51;;;;;;;6.43;4.90;;;;;;;;;;5077743;28;21008;-77
2023/07/04 14:26:29;;;;;;;4.43;4.00;;;;;;;;;;5077993;28;20448;-78
2023/07/04 14:29:06;;;;;;;4.73;4.00;;;;;;;;;;5077924;28;20440;-78
2023/07/04 14:31:40;;;;;;;5.20;4.70;;;;;;;;;;5077557;28;20559;-78
2023/07/04 14:34:20;;;;;;;6.93;4.93;;;;;;;;;;5076548;28;20469;-79
2023/07/04 14:39:40;;;;;;;4.27;3.47;;;;;;;;;;5077820;28;20480;-78
2023/07/04 14:42:25;;;;;;;4.00;3.60;;;;;;;;;;5080897;28;20540;-78
2023/07/04 14:44:59;;;;;;;4.00;3.37;;;;;;;;;;5081399;28;20542;-79
2023/07/04 14:47:43;;;;;;;3.87;3.40;;;;;;;;;;5081289;28;20794;-77
2023/07/04 14:50:14;;;;;;;3.00;2.80;;;;;;;;;;5081080;28;20498;-75
2023/07/04 14:52:46;;;;;;;3.47;3.10;;;;;;;;;;5081775;28;20447;-76
2023/07/04 14:55:44;;;;;;;7.67;3.17;;;;;;;;;;5079237;28;20440;-76
2023/07/04 14:58:24;;;;;;;3.30;3.00;;;;;;;;;;5064965;28;20453;-76
2023/07/04 15:00:59;;;;;;;3.23;3.03;;;;;;;;;;5079777;28;20509;-76
2023/07/04 15:03:58;;;;;;;4.13;3.07;;;;;;;;;;5077577;28;21005;-77
2023/07/04 15:06:36;;;;;;;3.47;3.17;;;;;;;;;;5077475;28;20441;-77
2023/07/04 15:09:22;;;;;;;3.57;3.00;;;;;;;;;;5077396;28;20464;-78
2023/07/04 15:11:54;;;;;;;3.30;3.00;;;;;;;;;;5078321;28;20444;-77
2023/07/04 15:14:24;;;;;;;4.30;3.50;;;;;;;;;;5077199;28;20516;-76
2023/07/04 15:16:56;;;;;;;3.70;3.40;;;;;;;;;;5076581;28;20453;-76
2023/07/04 15:19:24;;;;;;;5.93;3.63;;;;;;;;;;5077548;28;20465;-76
2023/07/04 15:21:52;;;;;;;4.33;3.93;;;;;;;;;;5079491;28;20456;-77
2023/07/04 15:24:26;;;;;;;3.77;3.40;;;;;;;;;;5076928;28;20460;-77
2023/07/04 15:26:54;;;;;;;3.40;3.20;;;;;;;;;;5076598;28;20456;-76
2023/07/04 15:29:22;;;;;;;3.40;3.10;;;;;;;;;;5077457;28;20441;-75
2023/07/04 15:31:52;;;;;;;4.77;3.20;;;;;;;;;;5077348;28;20440;-76
2023/07/04 15:34:24;;;;;;;3.40;3.10;;;;;;;;;;5078981;28;20537;-77
2023/07/04 15:37:06;;;;;;;4.70;3.70;;;;;;;;;;5078645;28;20455;-77
2023/07/04 15:39:34;;;;;;;3.87;3.57;;;;;;;;;;5077987;28;20817;-76
2023/07/04 15:42:26;;;;;;;;;;;;;;;;;;;;;
2023/07/04 15:48:03;;;;;;;4.33;3.80;;;;;;;;;;5073101;28;20522;-76
2023/07/04 15:50:32;;;;;;;5.20;3.97;;;;;;;;;;5076511;28;20521;-77
2023/07/04 15:56:10;;;;;;;4.57;3.50;;;;;;;;;;5069683;28;20888;-77
2023/07/04 15:58:47;;;;;;;4.10;3.50;;;;;;;;;;5077633;28;20536;-76
2023/07/04 16:01:28;;;;;;;4.60;3.67;;;;;;;;;;5078086;28;21001;-78
2023/07/04 16:04:04;;;;;;;3.30;3.10;;;;;;;;;;5076357;28;20479;-77
2023/07/04 16:06:36;;;;;;;3.90;3.60;;;;;;;;;;5076530;28;20444;-77
2023/07/04 16:09:07;;;;;;;3.70;3.40;;;;;;;;;;5076873;28;20554;-77
2023/07/04 16:11:49;;;;;;;4.00;3.60;;;;;;;;;;5079284;28;20480;-78
2023/07/04 16:14:32;;;;;;;3.20;3.00;;;;;;;;;;5078749;28;20540;-77
2023/07/04 16:17:04;;;;;;;9.60;3.67;;;;;;;;;;5084084;28;20459;-77
2023/07/04 16:19:41;;;;;;;4.60;3.77;;;;;;;;;;5084920;28;20432;-77
2023/07/04 16:22:23;;;;;;;3.70;3.40;;;;;;;;;;5080088;28;20443;-77
2023/07/04 16:24:58;;;;;;;4.17;3.87;;;;;;;;;;5078716;28;20514;-76
2023/07/04 16:27:26;;;;;;;4.90;4.10;;;;;;;;;;5082226;28;20444;-78
2023/07/04 16:30:06;;;;;;;5.40;4.27;;;;;;;;;;5081281;28;20490;-78
2023/07/04 16:36:03;;;;;;;6.27;3.80;;;;;;;;;;5072711;28;20471;-78
2023/07/04 16:38:54;;;;;;;4.80;4.13;;;28.40;75.90;;;;;;5088754;28;20472;-78
2023/07/04 16:41:40;;;;;;;4.67;4.10;;;28.30;76.60;;;;;;5091470;28;20499;-78
2023/07/04 16:44:42;;;;;;;4.27;3.87;;;27.90;77.50;;;;;;5090584;28;20445;-78
2023/07/04 16:47:21;;;;;;;5.00;3.70;;;28.40;77.80;;;;;;5091308;28;20453;-75
2023/07/04 16:50:14;;;;;;;4.10;3.70;;;28.60;77.00;;;;;;5087526;28;20475;-78
2023/07/04 16:52:43;;;;;;;4.40;4.00;;;28.60;77.60;;;;;;5089275;28;20520;-78
2023/07/04 16:55:19;;;;;;;4.63;4.23;;;28.40;77.90;;;;;;5089984;28;20464;-76
2023/07/04 16:57:48;;;;;;;4.70;4.17;;;27.90;78.80;;;;;;5089201;28;20494;-77
2023/07/04 17:00:22;;;;;;;4.60;4.13;;;27.60;79.10;;;;;;5089464;28;20468;-76
2023/07/04 17:02:50;;;;;;;4.20;3.80;;;27.90;78.80;;;;;;5089031;28;20472;-79
2023/07/04 17:05:19;;;;;;;6.40;4.30;;;28.20;79.00;;;;;;5087465;28;20472;-75
2023/07/04 17:07:50;;;;;;;4.80;4.40;;;27.80;79.00;;;;;;5090227;28;20453;-77
2023/07/04 17:10:22;;;;;;;7.10;4.40;;;27.70;80.20;;;;;;5089798;28;20449;-79
2023/07/04 17:13:04;;;;;;;5.30;4.10;;;27.40;80.20;;;;;;5089910;28;20479;-79
2023/07/04 17:15:36;;;;;;;4.53;3.90;;;27.30;80.90;;;;;;5089258;28;20445;-77
2023/07/04 17:18:19;;;;;;;6.70;4.90;;;27.10;81.90;;;;;;5091377;28;20447;-76
2023/07/04 17:24:03;;;;;;;5.70;5.00;;;26.30;83.20;;;;;;5094131;28;20841;-74
2023/07/04 17:29:41;;;;;;;6.37;4.47;;;25.60;85.80;;;;;;5094736;28;20497;-76
2023/07/04 17:32:21;;;;;;;5.10;4.60;;;25.60;86.20;;;;;;5091290;28;20463;-76
2023/07/04 17:35:12;;;;;;;4.97;4.57;;;25.90;85.80;;;;;;5088746;28;20449;-78
2023/07/04 17:38:22;;;;;;;5.07;4.53;;;25.60;86.40;;;;;;5086898;28;20453;-79
2023/07/04 17:41:08;;;;;;;4.67;4.20;;;25.60;86.90;;;;;;5084699;28;20472;-77
2023/07/04 17:46:51;;;;;;;4.63;4.23;;;26.00;86.70;;;;;;5090779;28;20444;-77
2023/07/04 17:49:22;;;;;;;6.03;4.80;;;25.90;86.90;;;;;;5091815;28;20428;-77
2023/07/04 17:52:12;;;;;;;6.27;4.30;;;25.50;87.60;;;;;;5088542;28;20462;-77
2023/07/04 17:54:44;;;;;;;8.43;6.07;;;25.50;88.20;;;;;;5089203;28;20484;-77
2023/07/04 17:57:34;;;;;;;7.03;4.67;;;25.70;88.30;;;;;;5083545;28;20445;-76
2023/07/04 18:00:50;;;;;;;6.27;4.70;;;25.70;88.80;;;;;;5084063;28;20449;-79
2023/07/04 18:03:22;;;;;;;9.73;4.50;;;25.80;88.50;;;;;;4999531;28;20536;-77
2023/07/04 18:06:02;;;;;;;5.60;4.53;;;25.50;89.10;;;;;;5000739;28;20499;-78
2023/07/04 18:08:34;;;;;;;4.57;4.17;;;25.40;89.30;;;;;;4999107;28;20437;-77
2023/07/04 18:11:15;;;;;;;5.23;4.73;;;25.30;90.00;;;;;;5071877;28;20456;-77
2023/07/04 18:13:59;;;;;;;4.43;3.93;;;25.00;90.40;;;;;;5080285;28;20456;-78
2023/07/04 18:16:34;;;;;;;4.53;4.10;;;25.20;90.50;;;;;;5081616;28;20451;-77
2023/07/04 18:19:06;;;;;;;5.30;4.87;;;25.30;90.50;;;;;;5085567;28;20432;-77
2023/07/04 18:21:35;;;;;;;5.10;4.60;;;25.20;90.70;;;;;;5089892;28;20472;-77
2023/07/04 18:24:06;;;;;;;5.27;4.83;;;25.10;90.80;;;;;;5084813;28;20479;-77
2023/07/04 18:26:44;;;;;;;6.60;4.40;;;25.30;91.00;;;;;;5083859;28;20437;-77
2023/07/04 18:29:16;;;;;;;5.53;4.93;;;25.20;91.00;;;;;;5082891;28;20484;-80
2023/07/04 18:31:47;;;;;;;5.40;4.70;;;24.90;91.10;;;;;;5083485;28;20475;-78
2023/07/04 18:34:16;;;;;;;5.10;4.60;;;24.80;91.60;;;;;;5085150;28;20563;-78
2023/07/04 18:36:59;;;;;;;5.40;4.90;;;24.90;91.70;;;;;;5084394;28;20523;-77
2023/07/04 18:42:37;;;;;;;4.73;4.30;;;24.90;91.90;;;;;;5084586;28;20559;-79
2023/07/04 18:45:06;;;;;;;9.03;5.43;;;24.90;92.20;;;;;;5091857;28;20467;-78
2023/07/04 18:47:53;;;;;;;7.33;6.63;;;24.80;92.30;;;;;;5088530;28;20429;-76
2023/07/04 18:50:26;;;;;;;5.23;4.73;;;24.80;92.40;;;;;;5087195;28;20457;-78
2023/07/04 18:52:53;;;;;;;5.23;4.73;;;24.70;92.80;;;;;;5083779;28;20475;-77
2023/07/04 18:55:21;;;;;;;6.17;4.70;;;24.80;92.90;;;;;;5085920;28;20456;-80
2023/07/04 18:57:49;;;;;;;4.30;3.93;;;24.70;92.80;;;;;;5082602;28;20429;-77
2023/07/04 19:00:17;;;;;;;7.33;5.50;;;24.60;93.20;;;;;;5082711;28;20445;-78
2023/07/04 19:02:58;;;;;;;6.47;5.80;;;24.60;93.60;;;;;;5081967;28;20940;-77